首页
METAR-TAF:

METAR-TAF

机场 :

伏尔加格勒, 俄罗斯

纬度: 48-47N, 经度: 044-22E, 海拔: 145米

当前天气观测

该预报发布于20分钟前的11:00 UTC
风速10节,风向,在东转东北东南之间变化
温度 13°C
湿度 24%
气压 1025 hPa
能见度10公里或以上
1500米以下无云,无积雨云

METAR: URWW 211100Z 10005MPS 060V130 CAVOK 13/M07 Q1025 R06/010070 NOSIG

时间: 14:20 (11:20 UTC)

预报

该预报发布于3小时和23分钟前的07:57 UTC
预报有效从21日的 09点(UTC)到 21日的 18点(UTC)
风速12节,风向东转东南,有时为23节阵风
能见度10公里或以上
多云层高于3000英尺
短暂存在
从 21日的 09点(UTC)到 21日的 18点(UTC)
风速10节,风向,有时为19节阵风

TAF: URWW 210757Z 2109/2118 11006G12MPS 9999 BKN030 TEMPO 2109/2118 08005G10MPS

超过4000个机场的气象观测和天气预报(METAR&TAF报告)。

可查询的气象台以黄色和红色小点在地图上表示。

将鼠标移到小点上方,可查看气象台名称。

然后点击查看天气观测和预报。

如需切换地图:点击带黑十字的绿色按钮放大地图;点击带横线的绿色按钮缩小地图;或者点击绿色箭头查看邻近地区的地图。


METAR-TAF: